Time;durP1;ratioP1;P1;durP2;ratioP2;P2;SDS_P1;SDS_P2;PMS_P1;PMS_P2;Temp;Humidity;BMP_temperature;BMP_pressure;BME280_temperature;BME280_humidity;BME280_pressure;Samples;Min_cycle;Max_cycle;Signal;HPM_P1;HPM_P2
2023/04/25 00:00:34;;;;;;;21.98;5.55;;;;;;;;;;5037118;28;20041;-69
2023/04/25 00:03:00;;;;;;;21.02;5.35;;;;;;;;;;5055197;28;20052;-69
2023/04/25 00:05:27;;;;;;;25.00;4.55;;;;;;;;;;5036735;28;20075;-69
2023/04/25 00:07:53;;;;;;;23.05;5.55;;;;;;;;;;5037788;28;20269;-69
2023/04/25 00:10:20;;;;;;;21.95;4.68;;;;;;;;;;5055194;28;20073;-69
2023/04/25 00:12:46;;;;;;;20.02;4.90;;;;;;;;;;5054766;28;20136;-69
2023/04/25 00:15:12;;;;;;;22.23;4.95;;;;;;;;;;5035597;28;20115;-69
2023/04/25 00:17:38;;;;;;;24.20;4.82;;;;;;;;;;5052741;28;20047;-69
2023/04/25 00:20:05;;;;;;;19.05;4.50;;;;;;;;;;5034758;28;20536;-69
2023/04/25 00:22:31;;;;;;;25.42;5.20;;;;;;;;;;5037096;28;20093;-69
2023/04/25 00:24:59;;;;;;;20.63;5.30;;;;;;;;;;5054343;28;20128;-69
2023/04/25 00:27:26;;;;;;;19.23;4.82;;;;;;;;;;5055022;28;20409;-69
2023/04/25 00:29:52;;;;;;;19.27;4.68;;;;;;;;;;5054299;28;20106;-68
2023/04/25 00:32:18;;;;;;;20.23;4.72;;;;;;;;;;5054611;28;20098;-69
2023/04/25 00:34:44;;;;;;;23.05;4.43;;;;;;;;;;5054938;28;20124;-69
2023/04/25 00:37:10;;;;;;;19.13;4.63;;;;;;;;;;5037692;28;20555;-69
2023/04/25 00:39:36;;;;;;;15.07;3.58;;;;;;;;;;5056433;28;20082;-69
2023/04/25 00:42:05;;;;;;;15.10;3.95;;;;;;;;;;5037488;28;20041;-69
2023/04/25 00:44:32;;;;;;;17.00;3.72;;;;;;;;;;5054798;28;20048;-69
2023/04/25 00:46:58;;;;;;;17.73;4.07;;;;;;;;;;5054083;28;20067;-69
2023/04/25 00:49:24;;;;;;;18.15;4.43;;;;;;;;;;5054148;28;20115;-69
2023/04/25 00:51:50;;;;;;;14.38;3.72;;;;;;;;;;5036063;28;20138;-69
2023/04/25 00:54:17;;;;;;;21.50;3.95;;;;;;;;;;5035263;28;20045;-69
2023/04/25 00:56:45;;;;;;;17.38;4.22;;;;;;;;;;5054375;28;20102;-69
2023/04/25 00:59:11;;;;;;;19.05;3.85;;;;;;;;;;5020019;28;20049;-69
2023/04/25 01:01:38;;;;;;;15.25;3.75;;;;;;;;;;5035962;28;20048;-69
2023/04/25 01:04:04;;;;;;;18.38;3.58;;;;;;;;;;5036376;28;20051;-69
2023/04/25 01:06:30;;;;;;;18.08;3.92;;;;;;;;;;5053883;28;20403;-69
2023/04/25 01:08:56;;;;;;;16.73;3.83;;;;;;;;;;5036169;28;20103;-69
2023/04/25 01:11:22;;;;;;;15.65;3.22;;;;;;;;;;5053860;28;20037;-69
2023/04/25 01:13:48;;;;;;;17.13;3.70;;;;;;;;;;5054357;28;20396;-70
2023/04/25 01:16:15;;;;;;;14.90;3.70;;;;;;;;;;5053949;28;20041;-69
2023/04/25 01:18:42;;;;;;;13.90;3.22;;;;;;;;;;5054410;28;20088;-69
2023/04/25 01:21:09;;;;;;;19.23;3.50;;;;;;;;;;5052035;28;20049;-69
2023/04/25 01:23:36;;;;;;;19.33;4.15;;;;;;;;;;5053797;28;20045;-69
2023/04/25 01:26:02;;;;;;;16.27;3.25;;;;;;;;;;5019237;28;20056;-69
2023/04/25 01:28:28;;;;;;;14.68;4.13;;;;;;;;;;5053100;28;20037;-69
2023/04/25 01:30:55;;;;;;;18.27;3.50;;;;;;;;;;5052409;28;20040;-68
2023/04/25 01:33:21;;;;;;;13.52;3.50;;;;;;;;;;5049107;28;20081;-69
2023/04/25 01:35:47;;;;;;;13.55;3.10;;;;;;;;;;5050481;28;20455;-69
2023/04/25 01:38:14;;;;;;;21.38;3.88;;;;;;;;;;5052151;28;20068;-69
2023/04/25 01:40:40;;;;;;;15.15;3.03;;;;;;;;;;5053428;28;20068;-69
2023/04/25 01:43:10;;;;;;;20.60;3.70;;;;;;;;;;5053189;28;20414;-69
2023/04/25 01:45:39;;;;;;;16.00;3.40;;;;;;;;;;5052662;28;20413;-69
2023/04/25 01:48:05;;;;;;;18.13;3.72;;;;;;;;;;5050382;28;20387;-69
2023/04/25 01:50:31;;;;;;;14.77;3.33;;;;;;;;;;5053242;28;20094;-69
2023/04/25 01:52:57;;;;;;;16.65;3.40;;;;;;;;;;5053018;28;20051;-69
2023/04/25 01:55:23;;;;;;;13.85;3.45;;;;;;;;;;5052899;28;20049;-69
2023/04/25 01:57:50;;;;;;;15.77;3.85;;;;;;;;;;5048581;28;20523;-69
2023/04/25 02:00:16;;;;;;;15.68;3.65;;;;;;;;;;5052887;28;20429;-70
2023/04/25 02:02:42;;;;;;;17.02;4.35;;;;;;;;;;5053117;28;20166;-70
2023/04/25 02:05:08;;;;;;;20.63;3.60;;;;;;;;;;5049489;28;20079;-70
2023/04/25 02:07:34;;;;;;;19.02;3.72;;;;;;;;;;5046538;28;20405;-70
2023/04/25 02:10:00;;;;;;;30.17;4.05;;;;;;;;;;5053251;28;20041;-69
2023/04/25 02:12:27;;;;;;;15.00;3.38;;;;;;;;;;5045141;28;20461;-69
2023/04/25 02:14:53;;;;;;;17.30;3.58;;;;;;;;;;5052533;28;20045;-69
2023/04/25 02:17:21;;;;;;;20.08;4.25;;;;;;;;;;5043783;28;20443;-69
2023/04/25 02:19:47;;;;;;;21.23;3.97;;;;;;;;;;5052831;28;20049;-70
2023/04/25 02:22:13;;;;;;;19.67;3.72;;;;;;;;;;5051468;28;20056;-69
2023/04/25 02:24:39;;;;;;;17.60;3.72;;;;;;;;;;5052947;28;20048;-69
2023/04/25 02:27:05;;;;;;;16.88;3.80;;;;;;;;;;5053058;28;20397;-69
2023/04/25 02:29:31;;;;;;;18.20;3.45;;;;;;;;;;5052764;28;20460;-70
2023/04/25 02:31:57;;;;;;;14.82;3.67;;;;;;;;;;5048769;28;20049;-69
2023/04/25 02:34:23;;;;;;;14.80;3.38;;;;;;;;;;5052788;28;20045;-69
2023/04/25 02:36:50;;;;;;;15.10;4.70;;;;;;;;;;5052535;28;20048;-69
2023/04/25 02:39:17;;;;;;;19.85;3.80;;;;;;;;;;5052968;28;20111;-69
2023/04/25 02:41:43;;;;;;;15.38;3.15;;;;;;;;;;5052579;28;20056;-69
2023/04/25 02:44:09;;;;;;;12.90;3.35;;;;;;;;;;5052726;28;20421;-70
2023/04/25 02:46:35;;;;;;;13.80;3.72;;;;;;;;;;5028700;28;20485;-70
2023/04/25 02:49:01;;;;;;;13.50;3.05;;;;;;;;;;5052234;28;20076;-70
2023/04/25 02:51:27;;;;;;;19.05;4.07;;;;;;;;;;5044450;28;20052;-69
2023/04/25 02:53:53;;;;;;;10.32;2.80;;;;;;;;;;5051637;28;20059;-70
2023/04/25 02:56:19;;;;;;;13.98;3.25;;;;;;;;;;5052231;28;20044;-70
2023/04/25 02:58:45;;;;;;;10.15;3.13;;;;;;;;;;5052093;28;20084;-70
2023/04/25 03:01:12;;;;;;;11.38;2.85;;;;;;;;;;5051790;28;20111;-69
2023/04/25 03:03:38;;;;;;;12.15;3.33;;;;;;;;;;5052024;28;20045;-69
2023/04/25 03:06:04;;;;;;;12.88;3.30;;;;;;;;;;5051832;28;20093;-69
2023/04/25 03:08:32;;;;;;;15.43;3.08;;;;;;;;;;5028151;28;20043;-69
2023/04/25 03:10:59;;;;;;;15.32;2.88;;;;;;;;;;5051520;28;20053;-69
2023/04/25 03:13:25;;;;;;;15.02;2.88;;;;;;;;;;5049926;28;20401;-70
2023/04/25 03:15:51;;;;;;;12.55;2.95;;;;;;;;;;5051366;28;20533;-69
2023/04/25 03:18:17;;;;;;;13.02;2.72;;;;;;;;;;5052135;28;20215;-69
2023/04/25 03:20:43;;;;;;;17.83;2.97;;;;;;;;;;5051639;28;20037;-69
2023/04/25 03:23:09;;;;;;;15.75;3.08;;;;;;;;;;5050194;28;20056;-70
2023/04/25 03:25:35;;;;;;;13.30;2.75;;;;;;;;;;5052178;28;20504;-68
2023/04/25 03:28:01;;;;;;;16.75;3.28;;;;;;;;;;5049265;28;20060;-69
2023/04/25 03:30:27;;;;;;;16.13;3.20;;;;;;;;;;5052995;28;20049;-69
2023/04/25 03:32:53;;;;;;;14.52;3.47;;;;;;;;;;5049974;28;20073;-70
2023/04/25 03:35:20;;;;;;;14.85;3.22;;;;;;;;;;5037148;28;20550;-70
2023/04/25 03:37:46;;;;;;;13.98;3.38;;;;;;;;;;5042932;28;20092;-69
2023/04/25 03:40:12;;;;;;;13.50;3.10;;;;;;;;;;5031850;28;20491;-70
2023/04/25 03:42:38;;;;;;;14.52;3.63;;;;;;;;;;5043202;28;20562;-70
2023/04/25 03:45:05;;;;;;;15.95;3.15;;;;;;;;;;5017722;28;20128;-70
2023/04/25 03:47:31;;;;;;;19.75;3.30;;;;;;;;;;5008637;28;20049;-70
2023/04/25 03:49:57;;;;;;;12.90;2.83;;;;;;;;;;5024748;28;20041;-70
2023/04/25 03:52:23;;;;;;;18.70;3.08;;;;;;;;;;5031759;28;20370;-69
2023/04/25 03:54:49;;;;;;;17.85;3.20;;;;;;;;;;5033844;28;20049;-69
2023/04/25 03:57:15;;;;;;;11.25;2.78;;;;;;;;;;5031457;28;20482;-69
2023/04/25 03:59:41;;;;;;;14.80;3.58;;;;;;;;;;5034533;28;20083;-69
2023/04/25 04:02:07;;;;;;;12.25;2.80;;;;;;;;;;5050668;28;20493;-69
2023/04/25 04:04:33;;;;;;;14.70;3.60;;;;;;;;;;5050270;28;20053;-69
2023/04/25 04:06:59;;;;;;;17.77;3.05;;;;;;;;;;5047750;28;20046;-69
2023/04/25 04:09:25;;;;;;;16.15;3.28;;;;;;;;;;5035623;28;20042;-69
2023/04/25 04:11:51;;;;;;;19.58;3.70;;;;;;;;;;5044085;28;20136;-69
2023/04/25 04:14:17;;;;;;;14.43;3.38;;;;;;;;;;5051159;28;20116;-69
2023/04/25 04:16:43;;;;;;;17.70;3.38;;;;;;;;;;5042736;28;20397;-69
2023/04/25 04:19:09;;;;;;;13.25;2.80;;;;;;;;;;5037424;28;20136;-69
2023/04/25 04:21:36;;;;;;;12.73;2.97;;;;;;;;;;5021791;28;20088;-69
2023/04/25 04:24:02;;;;;;;10.75;3.53;;;;;;;;;;5017155;28;20073;-69
2023/04/25 04:26:28;;;;;;;14.40;3.20;;;;;;;;;;5034604;28;20060;-70
2023/04/25 04:28:54;;;;;;;15.30;3.47;;;;;;;;;;5033286;28;20159;-69
2023/04/25 04:31:21;;;;;;;13.32;3.70;;;;;;;;;;5033793;28;20041;-69
2023/04/25 04:33:48;;;;;;;12.98;3.47;;;;;;;;;;5047265;28;20182;-69
2023/04/25 04:36:14;;;;;;;17.38;3.47;;;;;;;;;;5054589;28;20041;-69
2023/04/25 04:38:40;;;;;;;16.25;3.63;;;;;;;;;;5054778;28;20085;-69
2023/04/25 04:41:07;;;;;;;20.42;3.58;;;;;;;;;;5054639;28;20064;-68
2023/04/25 04:43:33;;;;;;;15.40;3.45;;;;;;;;;;5054704;28;20088;-69
2023/04/25 04:45:59;;;;;;;15.48;3.28;;;;;;;;;;5054688;28;20102;-69
2023/04/25 04:48:26;;;;;;;16.40;3.70;;;;;;;;;;5054590;28;20457;-69
2023/04/25 04:50:52;;;;;;;13.95;3.30;;;;;;;;;;5052087;28;20036;-69
2023/04/25 04:53:18;;;;;;;17.17;3.60;;;;;;;;;;5035736;28;20045;-69
2023/04/25 04:55:44;;;;;;;16.25;3.03;;;;;;;;;;5054014;28;20041;-69
2023/04/25 04:58:10;;;;;;;15.35;3.25;;;;;;;;;;5054245;28;20048;-75
2023/04/25 05:00:36;;;;;;;15.45;3.35;;;;;;;;;;5034843;28;20041;-75
2023/04/25 05:03:02;;;;;;;16.63;3.20;;;;;;;;;;5019925;28;20045;-73
2023/04/25 05:05:28;;;;;;;11.75;2.92;;;;;;;;;;5036385;28;20041;-74
2023/04/25 05:07:54;;;;;;;14.35;2.97;;;;;;;;;;5018949;28;20083;-74
2023/04/25 05:10:20;;;;;;;10.43;2.72;;;;;;;;;;5035118;28;20378;-75
2023/04/25 05:12:46;;;;;;;7.45;2.50;;;;;;;;;;5036233;28;20049;-74
2023/04/25 05:15:12;;;;;;;10.63;2.50;;;;;;;;;;5016797;28;20041;-74
2023/04/25 05:17:38;;;;;;;11.10;2.67;;;;;;;;;;5034756;28;20132;-74
2023/04/25 05:20:06;;;;;;;12.10;2.50;;;;;;;;;;5034425;28;20041;-74
2023/04/25 05:22:32;;;;;;;8.23;2.22;;;;;;;;;;5025792;28;20077;-74
2023/04/25 05:24:58;;;;;;;8.80;2.40;;;;;;;;;;5043639;28;20486;-74
2023/04/25 05:27:24;;;;;;;9.07;2.08;;;;;;;;;;5052694;28;20045;-74
2023/04/25 05:29:51;;;;;;;6.88;2.55;;;;;;;;;;5053029;28;20131;-74
2023/04/25 05:32:17;;;;;;;7.40;2.15;;;;;;;;;;5038964;28;20060;-74
2023/04/25 05:34:44;;;;;;;8.63;2.10;;;;;;;;;;5053017;28;20398;-74
2023/04/25 05:37:10;;;;;;;7.95;2.50;;;;;;;;;;5051019;28;20049;-75
2023/04/25 05:39:36;;;;;;;8.52;2.20;;;;;;;;;;5053388;28;20124;-75
2023/04/25 05:42:03;;;;;;;10.57;2.35;;;;;;;;;;5052464;28;20103;-74
2023/04/25 05:44:29;;;;;;;9.68;1.95;;;;;;;;;;5045130;28;20052;-74
2023/04/25 05:46:55;;;;;;;8.63;2.35;;;;;;;;;;5051754;28;20045;-75
2023/04/25 05:49:21;;;;;;;8.38;2.20;;;;;;;;;;5018772;28;20041;-74
2023/04/25 05:51:47;;;;;;;10.75;2.38;;;;;;;;;;5052929;28;20056;-75
2023/04/25 05:54:13;;;;;;;10.80;2.40;;;;;;;;;;5049357;28;20048;-75
2023/04/25 05:56:39;;;;;;;11.02;2.50;;;;;;;;;;5050460;28;20049;-74
2023/04/25 05:59:06;;;;;;;11.25;2.60;;;;;;;;;;5052431;28;20045;-74
2023/04/25 06:01:32;;;;;;;8.00;2.17;;;;;;;;;;5052334;28;20116;-75
2023/04/25 06:03:58;;;;;;;9.13;2.38;;;;;;;;;;5032520;28;20040;-75
2023/04/25 06:06:24;;;;;;;8.77;2.40;;;;;;;;;;5052523;28;20069;-75
2023/04/25 06:08:50;;;;;;;11.02;2.40;;;;;;;;;;5052564;28;20045;-75
2023/04/25 06:11:16;;;;;;;10.27;2.42;;;;;;;;;;5043673;28;20048;-75
2023/04/25 06:13:42;;;;;;;6.03;2.10;;;;;;;;;;5051666;28;20501;-75
2023/04/25 06:16:08;;;;;;;9.63;3.00;;;;;;;;;;5034889;28;20051;-74
2023/04/25 06:18:34;;;;;;;9.55;3.00;;;;;;;;;;5054647;28;20067;-74
2023/04/25 06:21:00;;;;;;;10.23;2.17;;;;;;;;;;5035630;28;20107;-75
2023/04/25 06:23:26;;;;;;;7.32;2.30;;;;;;;;;;5045363;28;20056;-74
2023/04/25 06:25:52;;;;;;;11.20;2.45;;;;;;;;;;5052774;28;20052;-75
2023/04/25 06:28:21;;;;;;;9.93;2.42;;;;;;;;;;5044190;28;20053;-75
2023/04/25 06:30:47;;;;;;;7.80;2.15;;;;;;;;;;5052224;28;20099;-75
2023/04/25 06:33:14;;;;;;;11.02;2.63;;;;;;;;;;5049439;28;20053;-75
2023/04/25 06:35:40;;;;;;;7.13;2.50;;;;;;;;;;5052650;28;20076;-74
2023/04/25 06:38:06;;;;;;;8.05;2.47;;;;;;;;;;5052474;28;20102;-74
2023/04/25 06:40:32;;;;;;;15.63;2.92;;;;;;;;;;5032724;28;20049;-75
2023/04/25 06:43:01;;;;;;;9.73;2.40;;;;;;;;;;5051426;28;20120;-75
2023/04/25 06:45:27;;;;;;;11.38;2.83;;;;;;;;;;5034592;28;20440;-75
2023/04/25 06:47:53;;;;;;;12.85;2.42;;;;;;;;;;5052480;28;20049;-75
2023/04/25 06:50:19;;;;;;;13.95;3.05;;;;;;;;;;5034426;28;20048;-74
2023/04/25 06:52:45;;;;;;;17.33;3.42;;;;;;;;;;5052030;28;20489;-75
2023/04/25 06:55:11;;;;;;;13.05;2.83;;;;;;;;;;5014761;28;20045;-75
2023/04/25 06:57:37;;;;;;;12.38;2.50;;;;;;;;;;5031107;28;20080;-75
2023/04/25 07:00:05;;;;;;;7.10;2.47;;;;;;;;;;5013255;28;20398;-75
2023/04/25 07:02:31;;;;;;;5.00;2.10;;;;;;;;;;5030455;28;20410;-75
2023/04/25 07:04:59;;;;;;;6.80;1.88;;;;;;;;;;5032049;28;20094;-75
2023/04/25 07:07:25;;;;;;;9.65;1.98;;;;;;;;;;5032247;28;20089;-75
2023/04/25 07:09:51;;;;;;;7.38;2.13;;;;;;;;;;5030480;28;20090;-75
2023/04/25 07:12:17;;;;;;;7.60;2.20;;;;;;;;;;5014252;28;20041;-75
2023/04/25 07:14:43;;;;;;;5.80;1.90;;;;;;;;;;5032233;28;20041;-76
2023/04/25 07:17:09;;;;;;;7.95;2.28;;;;;;;;;;5032019;28;20352;-76
2023/04/25 07:19:37;;;;;;;7.55;1.88;;;;;;;;;;5031602;28;20528;-75
2023/04/25 07:22:03;;;;;;;9.82;1.90;;;;;;;;;;5031795;28;20120;-76
2023/04/25 07:24:29;;;;;;;8.80;2.20;;;;;;;;;;5013801;28;20132;-76
2023/04/25 07:26:56;;;;;;;8.43;1.70;;;;;;;;;;5014558;28;20129;-76
2023/04/25 07:29:22;;;;;;;11.38;2.17;;;;;;;;;;5031910;28;20068;-76
2023/04/25 07:31:48;;;;;;;5.72;2.30;;;;;;;;;;5011321;28;20059;-76
2023/04/25 07:34:14;;;;;;;12.25;2.75;;;;;;;;;;5000091;28;20095;-76
2023/04/25 07:36:40;;;;;;;6.75;1.77;;;;;;;;;;5036083;28;20452;-76
2023/04/25 07:39:06;;;;;;;10.15;1.83;;;;;;;;;;5035727;28;20089;-76
2023/04/25 07:41:32;;;;;;;10.20;2.00;;;;;;;;;;5035797;28;20136;-75
2023/04/25 07:43:59;;;;;;;10.10;2.20;;;;;;;;;;5017705;28;20056;-75
2023/04/25 07:46:25;;;;;;;9.98;2.10;;;;;;;;;;5002039;28;20045;-75
2023/04/25 07:48:51;;;;;;;7.05;1.85;;;;;;;;;;5035880;28;20059;-75
2023/04/25 07:51:19;;;;;;;6.78;1.65;;;;;;;;;;5035317;28;20509;-76
2023/04/25 07:53:45;;;;;;;9.00;1.77;;;;;;;;;;5035093;28;20042;-75
2023/04/25 07:56:11;;;;;;;8.52;1.80;;;;;;;;;;5034446;28;20050;-75
2023/04/25 07:58:38;;;;;;;5.05;1.70;;;;;;;;;;5035734;28;20045;-75
2023/04/25 08:01:04;;;;;;;8.18;1.75;;;;;;;;;;5035082;28;20490;-75
2023/04/25 08:03:30;;;;;;;6.57;1.58;;;;;;;;;;5035305;28;20439;-77
2023/04/25 08:05:56;;;;;;;6.00;1.77;;;;;;;;;;5023490;28;20045;-77
2023/04/25 08:08:22;;;;;;;9.10;2.08;;;;;;;;;;5055138;28;20055;-76
2023/04/25 08:10:48;;;;;;;5.13;1.73;;;;;;;;;;5035194;28;20071;-77
2023/04/25 08:13:14;;;;;;;3.30;1.20;;;;;;;;;;5010823;28;20327;-77
2023/04/25 08:15:40;;;;;;;4.88;1.58;;;;;;;;;;5052021;28;20037;-77
2023/04/25 08:18:06;;;;;;;3.85;1.48;;;;;;;;;;5055002;28;20044;-77
2023/04/25 08:20:32;;;;;;;5.30;1.70;;;;;;;;;;5054506;28;20441;-77
2023/04/25 08:22:58;;;;;;;5.10;1.92;;;;;;;;;;5041748;28;20505;-77
2023/04/25 08:25:24;;;;;;;4.47;1.30;;;;;;;;;;5054406;28;20087;-76
2023/04/25 08:27:50;;;;;;;4.53;1.52;;;;;;;;;;5037474;28;20505;-76
2023/04/25 08:30:16;;;;;;;3.95;1.40;;;;;;;;;;5054768;28;20098;-77
2023/04/25 08:32:42;;;;;;;4.03;1.80;;;;;;;;;;5041043;28;20068;-75
2023/04/25 08:35:08;;;;;;;5.95;1.65;;;;;;;;;;5053539;28;20056;-76
2023/04/25 08:37:36;;;;;;;5.05;1.80;;;;;;;;;;5037284;28;20136;-76
2023/04/25 08:40:03;;;;;;;5.50;1.80;;;;;;;;;;5053360;28;20086;-75
2023/04/25 08:42:30;;;;;;;5.53;1.60;;;;;;;;;;5036691;28;20076;-76
2023/04/25 08:44:56;;;;;;;7.85;1.77;;;;;;;;;;5053052;28;20083;-76
2023/04/25 08:47:23;;;;;;;8.52;2.33;;;;;;;;;;5053845;28;20104;-76
2023/04/25 08:49:50;;;;;;;6.15;1.80;;;;;;;;;;5034730;28;20155;-76
2023/04/25 08:52:22;;;;;;;12.75;2.83;;;;;;;;;;5052312;28;20393;-76
2023/04/25 08:54:49;;;;;;;8.70;2.00;;;;;;;;;;5049634;28;20538;-76
2023/04/25 08:57:15;;;;;;;7.15;2.42;;;;;;;;;;5053945;28;20045;-76
2023/04/25 08:59:45;;;;;;;10.65;2.38;;;;;;;;;;5053010;28;20044;-76
2023/04/25 09:02:14;;;;;;;12.07;2.17;;;;;;;;;;5053066;28;20064;-76
2023/04/25 09:04:40;;;;;;;27.85;4.85;;;;;;;;;;5053277;28;20400;-76
2023/04/25 09:07:06;;;;;;;15.77;2.88;;;;;;;;;;5056880;28;20055;-76
2023/04/25 09:09:32;;;;;;;8.50;2.22;;;;;;;;;;5059292;28;20090;-76
2023/04/25 09:11:59;;;;;;;6.75;1.67;;;;;;;;;;5055827;28;20049;-76
2023/04/25 09:14:25;;;;;;;7.60;2.25;;;;;;;;;;5054701;28;20056;-76
2023/04/25 09:16:59;;;;;;;6.60;1.90;;;;;;;;;;5043399;28;20041;-76
2023/04/25 09:19:26;;;;;;;6.32;2.58;;;;;;;;;;5076604;28;20076;-76
2023/04/25 09:21:55;;;;;;;10.30;2.00;;;;;;;;;;5051456;28;20041;-76
2023/04/25 09:24:31;;;;;;;7.30;2.05;;;;;;;;;;5052245;28;20087;-76
2023/04/25 09:26:57;;;;;;;6.65;2.13;;;;;;;;;;5052958;28;20132;-75
2023/04/25 09:29:34;;;;;;;8.18;2.10;;;;;;;;;;5053341;28;20047;-75
2023/04/25 09:32:26;;;;;;;9.77;2.47;;;;;;;;;;5050304;28;20045;-75
2023/04/25 09:34:53;;;;;;;7.07;2.20;;;;;;;;;;5034194;28;20463;-76
2023/04/25 09:37:30;;;;;;;7.15;2.10;;;;;;;;;;5054274;28;20402;-76
2023/04/25 09:40:00;;;;;;;6.35;1.95;;;;;;;;;;5035583;28;20049;-76
2023/04/25 09:42:28;;;;;;;7.07;2.05;;;;;;;;;;5019264;28;20051;-76
2023/04/25 09:44:55;;;;;;;5.57;2.10;;;;;;;;;;5050963;28;20060;-76
2023/04/25 09:47:23;;;;;;;6.97;1.92;;;;;;;;;;5034222;28;20195;-77
2023/04/25 09:49:50;;;;;;;5.65;1.73;;;;;;;;;;5052471;28;20041;-78
2023/04/25 09:52:17;;;;;;;8.52;2.13;;;;;;;;;;5053536;28;20449;-78
2023/04/25 09:54:43;;;;;;;6.88;2.00;;;;;;;;;;5014518;28;20049;-79
2023/04/25 09:57:17;;;;;;;6.35;1.92;;;;;;;;;;5025359;28;20076;-78
2023/04/25 09:59:47;;;;;;;8.98;2.40;;;;;;;;;;5025283;28;20053;-78
2023/04/25 10:02:14;;;;;;;8.88;2.40;;;;;;;;;;5038208;28;20121;-78
2023/04/25 10:04:41;;;;;;;8.25;2.03;;;;;;;;;;5023299;28;20179;-79
2023/04/25 10:07:08;;;;;;;7.93;2.17;;;;;;;;;;5034629;28;20112;-79
2023/04/25 10:09:36;;;;;;;8.07;2.20;;;;;;;;;;5035201;28;20045;-77
2023/04/25 10:12:03;;;;;;;13.63;2.22;;;;;;;;;;5053110;28;20413;-77
2023/04/25 10:14:32;;;;;;;7.45;2.28;;;;;;;;;;5053037;28;20051;-77
2023/04/25 10:17:01;;;;;;;6.03;1.95;;;;;;;;;;5035312;28;20044;-77
2023/04/25 10:19:27;;;;;;;9.35;2.20;;;;;;;;;;5034933;28;20045;-79
2023/04/25 10:22:05;;;;;;;6.90;2.08;;;;;;;;;;5052806;28;20484;-77
2023/04/25 10:24:32;;;;;;;6.90;2.00;;;;;;;;;;5052811;28;20135;-77
2023/04/25 10:26:58;;;;;;;7.13;2.10;;;;;;;;;;5052724;28;20049;-76
2023/04/25 10:29:25;;;;;;;10.02;2.28;;;;;;;;;;5052821;28;20040;-76
2023/04/25 10:31:51;;;;;;;10.25;2.65;;;;;;;;;;5052549;28;20126;-76
2023/04/25 10:34:18;;;;;;;6.35;2.22;;;;;;;;;;5034555;28;20516;-77
2023/04/25 10:36:50;;;;;;;8.45;2.20;;;;;;;;;;5034828;28;20048;-77
2023/04/25 10:39:21;;;;;;;7.72;2.03;;;;;;;;;;5031573;28;20044;-78
2023/04/25 10:41:48;;;;;;;7.00;2.25;;;;;;;;;;5025382;28;20474;-78
2023/04/25 10:44:15;;;;;;;8.98;2.25;;;;;;;;;;5039937;28;20059;-77
2023/04/25 10:46:41;;;;;;;5.28;1.60;;;;;;;;;;5022551;28;20047;-77
2023/04/25 10:49:09;;;;;;;6.38;1.83;;;;;;;;;;5008748;28;20057;-76
2023/04/25 10:51:37;;;;;;;6.18;1.85;;;;;;;;;;5023863;28;20049;-77
2023/04/25 10:54:04;;;;;;;7.80;1.83;;;;;;;;;;5040236;28;20073;-77
2023/04/25 10:56:31;;;;;;;4.40;1.65;;;;;;;;;;5038561;28;20048;-76
2023/04/25 10:59:05;;;;;;;8.52;1.75;;;;;;;;;;5035643;28;20414;-78
2023/04/25 11:01:36;;;;;;;6.10;1.90;;;;;;;;;;5032354;28;20383;-77
2023/04/25 11:04:02;;;;;;;7.65;1.90;;;;;;;;;;5032784;28;20045;-77
2023/04/25 11:06:37;;;;;;;7.70;1.98;;;;;;;;;;5031251;28;20037;-78
2023/04/25 11:09:03;;;;;;;8.38;2.05;;;;;;;;;;5032023;28;20418;-77
2023/04/25 11:11:30;;;;;;;9.20;2.05;;;;;;;;;;5030720;28;20037;-77
2023/04/25 11:13:56;;;;;;;4.60;1.90;;;;;;;;;;5013891;28;20057;-77
2023/04/25 11:16:27;;;;;;;5.40;1.75;;;;;;;;;;5014583;28;20073;-77
2023/04/25 11:18:53;;;;;;;8.63;1.92;;;;;;;;;;5031541;28;20091;-77
2023/04/25 11:21:20;;;;;;;8.55;2.08;;;;;;;;;;5031752;28;20121;-78
2023/04/25 11:23:46;;;;;;;7.38;1.83;;;;;;;;;;5032110;28;20129;-78
2023/04/25 11:26:14;;;;;;;8.85;1.83;;;;;;;;;;5013296;28;20528;-78
2023/04/25 11:28:40;;;;;;;3.88;1.60;;;;;;;;;;5031933;28;20054;-75
2023/04/25 11:31:06;;;;;;;5.97;1.70;;;;;;;;;;5032049;28;20125;-76
2023/04/25 11:33:32;;;;;;;5.40;1.70;;;;;;;;;;5014412;28;20068;-77
2023/04/25 11:35:59;;;;;;;6.85;1.95;;;;;;;;;;5032186;28;20041;-77
2023/04/25 11:38:28;;;;;;;6.43;1.73;;;;;;;;;;5032524;28;20045;-77
2023/04/25 11:40:55;;;;;;;6.78;1.73;;;;;;;;;;5032206;28;20454;-77
2023/04/25 11:43:21;;;;;;;5.28;1.85;;;;;;;;;;5032319;28;20140;-77
2023/04/25 11:45:49;;;;;;;6.00;1.90;;;;;;;;;;5032155;28;20049;-77
2023/04/25 11:48:15;;;;;;;10.05;2.30;;;;;;;;;;5032035;28;20578;-77
2023/04/25 11:50:42;;;;;;;6.32;2.00;;;;;;;;;;5030556;28;20048;-77
2023/04/25 11:53:08;;;;;;;6.30;1.90;;;;;;;;;;5013658;28;20425;-76
2023/04/25 11:55:35;;;;;;;8.43;1.88;;;;;;;;;;5024005;28;20132;-77
2023/04/25 11:58:02;;;;;;;8.48;1.92;;;;;;;;;;5014661;28;20049;-77
2023/04/25 12:00:28;;;;;;;6.75;2.00;;;;;;;;;;5048369;28;20044;-76
2023/04/25 12:02:55;;;;;;;5.80;1.73;;;;;;;;;;5037393;28;20490;-78
2023/04/25 12:05:26;;;;;;;7.72;1.80;;;;;;;;;;5052175;28;20033;-78
2023/04/25 12:07:52;;;;;;;6.60;1.77;;;;;;;;;;5051920;28;20139;-79
2023/04/25 12:10:19;;;;;;;8.00;1.95;;;;;;;;;;5051983;28;20052;-78
2023/04/25 12:12:46;;;;;;;9.73;1.95;;;;;;;;;;5052124;28;20041;-78
2023/04/25 12:15:17;;;;;;;9.07;2.28;;;;;;;;;;5033792;28;20053;-77
2023/04/25 12:17:46;;;;;;;6.65;2.08;;;;;;;;;;5052006;28;20087;-77
2023/04/25 12:20:20;;;;;;;7.43;1.70;;;;;;;;;;5053723;28;20041;-78
2023/04/25 12:22:47;;;;;;;6.20;1.83;;;;;;;;;;5055512;28;20045;-77
2023/04/25 12:25:33;;;;;;;11.32;1.90;;;;;;;;;;5020668;28;20055;-78
2023/04/25 12:28:11;;;;;;;7.43;1.98;;;;;;;;;;5041322;28;20413;-78
2023/04/25 12:30:57;;;;;;;7.07;1.95;;;;;;;;;;5054955;28;20436;-78
2023/04/25 12:33:23;;;;;;;8.30;1.70;;;;;;;;;;5047182;28;20515;-79
2023/04/25 12:35:49;;;;;;;9.93;2.20;;;;;;;;;;5054276;28;20127;-78
2023/04/25 12:38:21;;;;;;;7.68;1.88;;;;;;;;;;5054580;28;20044;-79
2023/04/25 12:40:47;;;;;;;8.48;2.00;;;;;;;;;;5054813;28;20076;-78
2023/04/25 12:43:13;;;;;;;7.35;2.10;;;;;;;;;;5055135;28;20142;-79
2023/04/25 12:45:39;;;;;;;8.88;1.92;;;;;;;;;;5054628;28;20048;-78
2023/04/25 12:48:05;;;;;;;4.70;1.60;;;;;;;;;;5052687;28;20045;-78
2023/04/25 12:50:32;;;;;;;9.70;1.73;;;;;;;;;;5030921;28;20080;-78
2023/04/25 12:52:58;;;;;;;4.50;1.60;;;;;;;;;;5054788;28;20044;-78
2023/04/25 12:55:24;;;;;;;6.10;1.85;;;;;;;;;;5034751;28;20045;-77
2023/04/25 12:57:50;;;;;;;6.88;1.83;;;;;;;;;;5034745;28;20041;-77
2023/04/25 13:00:19;;;;;;;7.85;2.03;;;;;;;;;;5034402;28;20042;-77
2023/04/25 13:02:46;;;;;;;7.03;1.92;;;;;;;;;;5034529;28;20129;-77
2023/04/25 13:05:12;;;;;;;8.43;2.03;;;;;;;;;;5033988;28;20049;-77
2023/04/25 13:07:39;;;;;;;9.07;1.98;;;;;;;;;;5034653;28;20045;-77
2023/04/25 13:10:05;;;;;;;9.55;2.05;;;;;;;;;;5032096;28;20041;-78
2023/04/25 13:12:31;;;;;;;6.75;1.88;;;;;;;;;;5000387;28;20046;-78
2023/04/25 13:14:58;;;;;;;7.47;2.03;;;;;;;;;;5000047;28;20102;-79
2023/04/25 13:17:24;;;;;;;6.32;2.08;;;;;;;;;;5034326;28;20042;-78
2023/04/25 13:19:50;;;;;;;10.70;2.28;;;;;;;;;;5016662;28;20045;-78
2023/04/25 13:22:16;;;;;;;7.22;1.92;;;;;;;;;;5016272;28;20048;-77
2023/04/25 13:24:43;;;;;;;6.63;2.00;;;;;;;;;;5016197;28;20049;-78
2023/04/25 13:27:09;;;;;;;5.72;1.92;;;;;;;;;;5033299;28;20410;-78
2023/04/25 13:29:35;;;;;;;5.70;1.95;;;;;;;;;;5027247;28;20068;-78
2023/04/25 13:32:02;;;;;;;9.23;2.25;;;;;;;;;;5033791;28;20088;-78
2023/04/25 13:34:29;;;;;;;9.77;2.35;;;;;;;;;;5034096;28;20050;-78
2023/04/25 13:36:55;;;;;;;7.78;2.30;;;;;;;;;;5034129;28;20041;-78
2023/04/25 13:39:21;;;;;;;12.82;2.42;;;;;;;;;;5034190;28;20045;-77
2023/04/25 13:41:47;;;;;;;7.28;2.03;;;;;;;;;;5015886;28;20151;-77
2023/04/25 13:44:13;;;;;;;9.10;2.08;;;;;;;;;;5016546;28;20449;-78
2023/04/25 13:46:39;;;;;;;8.18;2.25;;;;;;;;;;5031484;28;20049;-77
2023/04/25 13:49:05;;;;;;;6.28;2.10;;;;;;;;;;5034231;28;20049;-77
2023/04/25 13:51:31;;;;;;;6.43;1.90;;;;;;;;;;5015517;28;20049;-78
2023/04/25 13:53:58;;;;;;;7.47;1.95;;;;;;;;;;5023670;28;20443;-78
2023/04/25 13:56:24;;;;;;;5.40;1.70;;;;;;;;;;5019360;28;20486;-79
2023/04/25 13:58:51;;;;;;;7.88;2.15;;;;;;;;;;5035578;28;20459;-79
2023/04/25 14:01:18;;;;;;;6.38;1.75;;;;;;;;;;5033063;28;20060;-78
2023/04/25 14:03:47;;;;;;;5.88;1.95;;;;;;;;;;5035936;28;20102;-78
2023/04/25 14:06:13;;;;;;;8.82;2.00;;;;;;;;;;5035152;28;20044;-79
2023/04/25 14:08:40;;;;;;;8.20;2.05;;;;;;;;;;5034658;28;20413;-77
2023/04/25 14:11:06;;;;;;;9.38;1.98;;;;;;;;;;5053098;28;20116;-78
2023/04/25 14:13:32;;;;;;;7.60;2.33;;;;;;;;;;5018930;28;20048;-78
2023/04/25 14:15:58;;;;;;;13.95;2.53;;;;;;;;;;5052871;28;20080;-79
2023/04/25 14:18:24;;;;;;;8.35;2.05;;;;;;;;;;5035243;28;20049;-78
2023/04/25 14:20:51;;;;;;;7.50;2.08;;;;;;;;;;5052592;28;20556;-78
2023/04/25 14:23:17;;;;;;;6.80;1.90;;;;;;;;;;5035361;28;20049;-78
2023/04/25 14:25:44;;;;;;;5.75;1.90;;;;;;;;;;5052835;28;20041;-77
2023/04/25 14:28:10;;;;;;;7.63;2.28;;;;;;;;;;5053085;28;20064;-77
2023/04/25 14:30:36;;;;;;;6.00;1.52;;;;;;;;;;5018173;28;20052;-77
2023/04/25 14:33:02;;;;;;;7.65;2.10;;;;;;;;;;5052747;28;20095;-77